<?xml version="1.0" encoding="UTF-8" standalone="no" ?>
<gpx xmlns="http://www.topografix.com/GPX/1/1" xmlns:xsi="http://www.w3.org/2001/XMLSchema-instance" xsi:schemaLocation="http://www.topografix.com/GPX/1/1 http://www.topografix.com/GPX/1/1/gpx.xsd" version="1.1" creator="VisuGPX - https://www.visugpx.com">
  <metadata>
    <name>Au départ de Chazelles sur Lyon</name>
    <desc><![CDATA[Parcours pris sur openrunner et mis au départ de Chazelles sur Lyon]]></desc>
  </metadata>
  <trk>
    <name><![CDATA[OpenLayers.Feature.Vector_13554]]></name>
    <trkseg>
      <trkpt lat="45.63756" lon="4.38772">
        <ele>610</ele>
      </trkpt>
      <trkpt lat="45.63735" lon="4.38822">
        <ele>615</ele>
      </trkpt>
      <trkpt lat="45.63678" lon="4.38817">
        <ele>612</ele>
      </trkpt>
      <trkpt lat="45.63675" lon="4.38794">
        <ele>612</ele>
      </trkpt>
      <trkpt lat="45.63661" lon="4.38793">
        <ele>612</ele>
      </trkpt>
      <trkpt lat="45.63647" lon="4.38803">
        <ele>612</ele>
      </trkpt>
      <trkpt lat="45.63551" lon="4.38709">
        <ele>610</ele>
      </trkpt>
      <trkpt lat="45.63542" lon="4.38862">
        <ele>609</ele>
      </trkpt>
      <trkpt lat="45.63519" lon="4.38955">
        <ele>612</ele>
      </trkpt>
      <trkpt lat="45.63491" lon="4.39251">
        <ele>613</ele>
      </trkpt>
      <trkpt lat="45.63481" lon="4.39337">
        <ele>614</ele>
      </trkpt>
      <trkpt lat="45.63459" lon="4.39452">
        <ele>616</ele>
      </trkpt>
      <trkpt lat="45.63447" lon="4.39544">
        <ele>611</ele>
      </trkpt>
      <trkpt lat="45.63447" lon="4.39629">
        <ele>610</ele>
      </trkpt>
      <trkpt lat="45.63447" lon="4.39629">
        <ele>610</ele>
      </trkpt>
      <trkpt lat="45.63434" lon="4.39654">
        <ele>610</ele>
      </trkpt>
      <trkpt lat="45.63297" lon="4.39687">
        <ele>602</ele>
      </trkpt>
      <trkpt lat="45.63138" lon="4.39726">
        <ele>582</ele>
        <time>2017-03-19T03:18:53Z</time>
      </trkpt>
      <trkpt lat="45.63114" lon="4.39812">
        <ele>576</ele>
        <time>2017-03-19T03:20:53Z</time>
      </trkpt>
      <trkpt lat="45.62946" lon="4.40026">
        <ele>557</ele>
        <time>2017-03-19T03:22:53Z</time>
      </trkpt>
      <trkpt lat="45.62811" lon="4.40125">
        <ele>548</ele>
        <time>2017-03-19T03:24:53Z</time>
      </trkpt>
      <trkpt lat="45.62694" lon="4.40546">
        <ele>534</ele>
        <time>2017-03-19T03:26:53Z</time>
      </trkpt>
      <trkpt lat="45.62712" lon="4.40636">
        <ele>536</ele>
        <time>2017-03-19T03:28:53Z</time>
      </trkpt>
      <trkpt lat="45.62631" lon="4.40726">
        <ele>542</ele>
        <time>2017-03-19T03:30:53Z</time>
      </trkpt>
      <trkpt lat="45.6258" lon="4.4088">
        <ele>547</ele>
        <time>2017-03-19T03:32:53Z</time>
      </trkpt>
      <trkpt lat="45.62529" lon="4.41031">
        <ele>554</ele>
        <time>2017-03-19T03:34:53Z</time>
      </trkpt>
      <trkpt lat="45.62484" lon="4.41181">
        <ele>557</ele>
        <time>2017-03-19T03:36:53Z</time>
      </trkpt>
      <trkpt lat="45.62256" lon="4.40769">
        <ele>546</ele>
        <time>2017-03-19T03:38:53Z</time>
      </trkpt>
      <trkpt lat="45.62223" lon="4.4058">
        <ele>543</ele>
        <time>2017-03-19T03:40:53Z</time>
      </trkpt>
      <trkpt lat="45.62184" lon="4.40421">
        <ele>537</ele>
        <time>2017-03-19T03:42:53Z</time>
      </trkpt>
      <trkpt lat="45.6219" lon="4.40314">
        <ele>533</ele>
        <time>2017-03-19T03:44:53Z</time>
      </trkpt>
      <trkpt lat="45.62184" lon="4.40185">
        <ele>530</ele>
        <time>2017-03-19T03:46:53Z</time>
      </trkpt>
      <trkpt lat="45.62181" lon="4.40099">
        <ele>526</ele>
        <time>2017-03-19T03:48:53Z</time>
      </trkpt>
      <trkpt lat="45.62214" lon="4.39966">
        <ele>522</ele>
        <time>2017-03-19T03:50:53Z</time>
      </trkpt>
      <trkpt lat="45.62187" lon="4.39838">
        <ele>525</ele>
        <time>2017-03-19T03:52:53Z</time>
      </trkpt>
      <trkpt lat="45.62187" lon="4.39662">
        <ele>536</ele>
        <time>2017-03-19T03:54:53Z</time>
      </trkpt>
      <trkpt lat="45.62184" lon="4.39473">
        <ele>546</ele>
        <time>2017-03-19T03:56:53Z</time>
      </trkpt>
      <trkpt lat="45.62067" lon="4.39121">
        <ele>542</ele>
        <time>2017-03-19T03:58:53Z</time>
      </trkpt>
      <trkpt lat="45.61995" lon="4.39151">
        <ele>537</ele>
        <time>2017-03-19T04:00:53Z</time>
      </trkpt>
      <trkpt lat="45.61986" lon="4.39078">
        <ele>536</ele>
        <time>2017-03-19T04:02:53Z</time>
      </trkpt>
      <trkpt lat="45.61992" lon="4.38919">
        <ele>533</ele>
        <time>2017-03-19T04:04:53Z</time>
      </trkpt>
      <trkpt lat="45.62049" lon="4.38893">
        <ele>541</ele>
        <time>2017-03-19T04:06:53Z</time>
      </trkpt>
      <trkpt lat="45.62046" lon="4.38816">
        <ele>543</ele>
        <time>2017-03-19T04:08:53Z</time>
      </trkpt>
      <trkpt lat="45.6201" lon="4.38709">
        <ele>543</ele>
        <time>2017-03-19T04:10:53Z</time>
      </trkpt>
      <trkpt lat="45.61905" lon="4.3867">
        <ele>536</ele>
        <time>2017-03-19T04:12:53Z</time>
      </trkpt>
      <trkpt lat="45.61845" lon="4.38593">
        <ele>527</ele>
        <time>2017-03-19T04:14:53Z</time>
      </trkpt>
      <trkpt lat="45.61737" lon="4.3858">
        <ele>514</ele>
        <time>2017-03-19T04:16:53Z</time>
      </trkpt>
      <trkpt lat="45.61776" lon="4.384">
        <ele>519</ele>
        <time>2017-03-19T04:18:53Z</time>
      </trkpt>
      <trkpt lat="45.61827" lon="4.38224">
        <ele>512</ele>
        <time>2017-03-19T04:20:53Z</time>
      </trkpt>
      <trkpt lat="45.61905" lon="4.38104">
        <ele>515</ele>
        <time>2017-03-19T04:22:53Z</time>
      </trkpt>
      <trkpt lat="45.61956" lon="4.37893">
        <ele>511</ele>
        <time>2017-03-19T04:24:53Z</time>
      </trkpt>
      <trkpt lat="45.61866" lon="4.37859">
        <ele>508</ele>
        <time>2017-03-19T04:26:53Z</time>
      </trkpt>
      <trkpt lat="45.618" lon="4.37636">
        <ele>501</ele>
        <time>2017-03-19T04:28:53Z</time>
      </trkpt>
      <trkpt lat="45.61791" lon="4.3752">
        <ele>496</ele>
        <time>2017-03-19T04:30:53Z</time>
      </trkpt>
      <trkpt lat="45.61872" lon="4.37464">
        <ele>492</ele>
        <time>2017-03-19T04:32:53Z</time>
      </trkpt>
      <trkpt lat="45.61935" lon="4.37512">
        <ele>493</ele>
        <time>2017-03-19T04:34:53Z</time>
      </trkpt>
      <trkpt lat="45.62046" lon="4.37533">
        <ele>496</ele>
        <time>2017-03-19T04:36:53Z</time>
      </trkpt>
      <trkpt lat="45.62154" lon="4.37499">
        <ele>500</ele>
        <time>2017-03-19T04:38:53Z</time>
      </trkpt>
      <trkpt lat="45.62205" lon="4.37503">
        <ele>503</ele>
        <time>2017-03-19T04:40:53Z</time>
      </trkpt>
      <trkpt lat="45.62277" lon="4.37413">
        <ele>499</ele>
        <time>2017-03-19T04:42:53Z</time>
      </trkpt>
      <trkpt lat="45.62289" lon="4.37151">
        <ele>500</ele>
        <time>2017-03-19T04:44:53Z</time>
      </trkpt>
      <trkpt lat="45.62253" lon="4.3676">
        <ele>492</ele>
        <time>2017-03-19T04:46:53Z</time>
      </trkpt>
      <trkpt lat="45.62256" lon="4.36391">
        <ele>513</ele>
        <time>2017-03-19T04:48:53Z</time>
      </trkpt>
      <trkpt lat="45.62262" lon="4.36112">
        <ele>519</ele>
        <time>2017-03-19T04:50:53Z</time>
      </trkpt>
      <trkpt lat="45.62223" lon="4.3604">
        <ele>522</ele>
        <time>2017-03-19T04:52:53Z</time>
      </trkpt>
      <trkpt lat="45.62151" lon="4.35834">
        <ele>542</ele>
        <time>2017-03-19T04:54:53Z</time>
      </trkpt>
      <trkpt lat="45.62073" lon="4.35696">
        <ele>543</ele>
        <time>2017-03-19T04:56:53Z</time>
      </trkpt>
      <trkpt lat="45.61989" lon="4.35868">
        <ele>538</ele>
        <time>2017-03-19T04:58:53Z</time>
      </trkpt>
      <trkpt lat="45.61965" lon="4.36014">
        <ele>531</ele>
        <time>2017-03-19T05:00:53Z</time>
      </trkpt>
      <trkpt lat="45.6186" lon="4.36134">
        <ele>526</ele>
        <time>2017-03-19T05:02:53Z</time>
      </trkpt>
      <trkpt lat="45.61755" lon="4.36228">
        <ele>534</ele>
        <time>2017-03-19T05:04:53Z</time>
      </trkpt>
      <trkpt lat="45.61722" lon="4.36164">
        <ele>529</ele>
        <time>2017-03-19T05:06:53Z</time>
      </trkpt>
      <trkpt lat="45.61707" lon="4.3607">
        <ele>521</ele>
        <time>2017-03-19T05:08:53Z</time>
      </trkpt>
      <trkpt lat="45.61707" lon="4.35902">
        <ele>510</ele>
        <time>2017-03-19T05:10:53Z</time>
      </trkpt>
      <trkpt lat="45.61773" lon="4.357">
        <ele>527</ele>
        <time>2017-03-19T05:12:53Z</time>
      </trkpt>
      <trkpt lat="45.61644" lon="4.35533">
        <ele>521</ele>
        <time>2017-03-19T05:14:53Z</time>
      </trkpt>
      <trkpt lat="45.61602" lon="4.35361">
        <ele>521</ele>
        <time>2017-03-19T05:16:53Z</time>
      </trkpt>
      <trkpt lat="45.61485" lon="4.35391">
        <ele>507</ele>
        <time>2017-03-19T05:18:53Z</time>
      </trkpt>
      <trkpt lat="45.61422" lon="4.35456">
        <ele>503</ele>
        <time>2017-03-19T05:20:53Z</time>
      </trkpt>
      <trkpt lat="45.61398" lon="4.35559">
        <ele>501</ele>
        <time>2017-03-19T05:22:53Z</time>
      </trkpt>
      <trkpt lat="45.61292" lon="4.35529">
        <ele>481</ele>
        <time>2017-03-19T05:24:53Z</time>
      </trkpt>
      <trkpt lat="45.61259" lon="4.35615">
        <ele>472</ele>
        <time>2017-03-19T05:26:53Z</time>
      </trkpt>
      <trkpt lat="45.61103" lon="4.35679">
        <ele>456</ele>
        <time>2017-03-19T05:28:53Z</time>
      </trkpt>
      <trkpt lat="45.61025" lon="4.35653">
        <ele>448</ele>
        <time>2017-03-19T05:30:53Z</time>
      </trkpt>
      <trkpt lat="45.60944" lon="4.35683">
        <ele>434</ele>
        <time>2017-03-19T05:32:53Z</time>
      </trkpt>
      <trkpt lat="45.60917" lon="4.35743">
        <ele>427</ele>
        <time>2017-03-19T05:34:53Z</time>
      </trkpt>
      <trkpt lat="45.6089" lon="4.35628">
        <ele>426</ele>
        <time>2017-03-19T05:36:53Z</time>
      </trkpt>
      <trkpt lat="45.60857" lon="4.35464">
        <ele>432</ele>
        <time>2017-03-19T05:38:53Z</time>
      </trkpt>
      <trkpt lat="45.6086" lon="4.35306">
        <ele>429</ele>
        <time>2017-03-19T05:40:53Z</time>
      </trkpt>
      <trkpt lat="45.608" lon="4.35186">
        <ele>420</ele>
        <time>2017-03-19T05:42:53Z</time>
      </trkpt>
      <trkpt lat="45.60722" lon="4.35319">
        <ele>440</ele>
        <time>2017-03-19T05:44:53Z</time>
      </trkpt>
      <trkpt lat="45.60641" lon="4.35512">
        <ele>460</ele>
        <time>2017-03-19T05:46:53Z</time>
      </trkpt>
      <trkpt lat="45.60602" lon="4.35525">
        <ele>463</ele>
        <time>2017-03-19T05:48:53Z</time>
      </trkpt>
      <trkpt lat="45.60548" lon="4.35477">
        <ele>461</ele>
        <time>2017-03-19T05:50:53Z</time>
      </trkpt>
      <trkpt lat="45.60476" lon="4.35323">
        <ele>463</ele>
        <time>2017-03-19T05:52:53Z</time>
      </trkpt>
      <trkpt lat="45.60386" lon="4.35314">
        <ele>462</ele>
        <time>2017-03-19T05:54:53Z</time>
      </trkpt>
      <trkpt lat="45.60353" lon="4.3543">
        <ele>475</ele>
        <time>2017-03-19T05:56:53Z</time>
      </trkpt>
      <trkpt lat="45.60302" lon="4.35546">
        <ele>483</ele>
        <time>2017-03-19T05:58:53Z</time>
      </trkpt>
      <trkpt lat="45.60314" lon="4.35679">
        <ele>494</ele>
        <time>2017-03-19T06:00:53Z</time>
      </trkpt>
      <trkpt lat="45.60266" lon="4.35894">
        <ele>508</ele>
        <time>2017-03-19T06:02:53Z</time>
      </trkpt>
      <trkpt lat="45.60215" lon="4.36018">
        <ele>516</ele>
        <time>2017-03-19T06:04:53Z</time>
      </trkpt>
      <trkpt lat="45.60131" lon="4.36078">
        <ele>520</ele>
        <time>2017-03-19T06:06:53Z</time>
      </trkpt>
      <trkpt lat="45.60032" lon="4.3604">
        <ele>523</ele>
        <time>2017-03-19T06:08:53Z</time>
      </trkpt>
      <trkpt lat="45.59902" lon="4.36087">
        <ele>532</ele>
        <time>2017-03-19T06:10:53Z</time>
      </trkpt>
      <trkpt lat="45.59773" lon="4.361">
        <ele>539</ele>
        <time>2017-03-19T06:12:53Z</time>
      </trkpt>
      <trkpt lat="45.59773" lon="4.361">
        <ele>539</ele>
      </trkpt>
      <trkpt lat="45.5975" lon="4.3611">
        <ele>539</ele>
      </trkpt>
      <trkpt lat="45.59742" lon="4.36167">
        <ele>543</ele>
      </trkpt>
      <trkpt lat="45.59722" lon="4.36173">
        <ele>543</ele>
      </trkpt>
      <trkpt lat="45.59695" lon="4.36154">
        <ele>546</ele>
      </trkpt>
      <trkpt lat="45.59671" lon="4.36181">
        <ele>546</ele>
      </trkpt>
      <trkpt lat="45.59638" lon="4.36228">
        <ele>545</ele>
        <time>2017-03-18T19:32:53Z</time>
      </trkpt>
      <trkpt lat="45.59662" lon="4.36327">
        <ele>547</ele>
        <time>2017-03-18T19:34:53Z</time>
      </trkpt>
      <trkpt lat="45.59575" lon="4.364">
        <ele>546</ele>
        <time>2017-03-18T19:36:53Z</time>
      </trkpt>
      <trkpt lat="45.59518" lon="4.36524">
        <ele>548</ele>
        <time>2017-03-18T19:38:53Z</time>
      </trkpt>
      <trkpt lat="45.59515" lon="4.36679">
        <ele>549</ele>
        <time>2017-03-18T19:40:53Z</time>
      </trkpt>
      <trkpt lat="45.59461" lon="4.36821">
        <ele>549</ele>
        <time>2017-03-18T19:42:53Z</time>
      </trkpt>
      <trkpt lat="45.59395" lon="4.36971">
        <ele>550</ele>
        <time>2017-03-18T19:44:53Z</time>
      </trkpt>
      <trkpt lat="45.59338" lon="4.37031">
        <ele>551</ele>
        <time>2017-03-18T19:46:53Z</time>
      </trkpt>
      <trkpt lat="45.59335" lon="4.37065">
        <ele>550</ele>
        <time>2017-03-18T19:48:53Z</time>
      </trkpt>
      <trkpt lat="45.59311" lon="4.37087">
        <ele>550</ele>
        <time>2017-03-18T19:50:53Z</time>
      </trkpt>
      <trkpt lat="45.59236" lon="4.37112">
        <ele>552</ele>
        <time>2017-03-18T19:52:53Z</time>
      </trkpt>
      <trkpt lat="45.59215" lon="4.37207">
        <ele>550</ele>
        <time>2017-03-18T19:54:53Z</time>
      </trkpt>
      <trkpt lat="45.59197" lon="4.37323">
        <ele>550</ele>
        <time>2017-03-18T19:56:53Z</time>
      </trkpt>
      <trkpt lat="45.59152" lon="4.37426">
        <ele>548</ele>
        <time>2017-03-18T19:58:53Z</time>
      </trkpt>
      <trkpt lat="45.59053" lon="4.37554">
        <ele>536</ele>
        <time>2017-03-18T20:00:53Z</time>
      </trkpt>
      <trkpt lat="45.58929" lon="4.37713">
        <ele>526</ele>
        <time>2017-03-18T20:02:53Z</time>
      </trkpt>
      <trkpt lat="45.5886" lon="4.37829">
        <ele>524</ele>
        <time>2017-03-18T20:04:53Z</time>
      </trkpt>
      <trkpt lat="45.588" lon="4.37846">
        <ele>528</ele>
        <time>2017-03-18T20:06:53Z</time>
      </trkpt>
      <trkpt lat="45.58749" lon="4.37923">
        <ele>535</ele>
        <time>2017-03-18T20:08:53Z</time>
      </trkpt>
      <trkpt lat="45.58698" lon="4.37923">
        <ele>541</ele>
        <time>2017-03-18T20:10:53Z</time>
      </trkpt>
      <trkpt lat="45.58614" lon="4.37872">
        <ele>551</ele>
        <time>2017-03-18T20:12:53Z</time>
      </trkpt>
      <trkpt lat="45.58554" lon="4.37868">
        <ele>559</ele>
        <time>2017-03-18T20:14:53Z</time>
      </trkpt>
      <trkpt lat="45.5847" lon="4.37885">
        <ele>570</ele>
        <time>2017-03-18T20:16:53Z</time>
      </trkpt>
      <trkpt lat="45.58395" lon="4.37911">
        <ele>583</ele>
        <time>2017-03-18T20:18:53Z</time>
      </trkpt>
      <trkpt lat="45.58347" lon="4.38022">
        <ele>588</ele>
        <time>2017-03-18T20:20:53Z</time>
      </trkpt>
      <trkpt lat="45.58191" lon="4.38134">
        <ele>600</ele>
        <time>2017-03-18T20:22:53Z</time>
      </trkpt>
      <trkpt lat="45.58224" lon="4.38215">
        <ele>599</ele>
        <time>2017-03-18T20:24:53Z</time>
      </trkpt>
      <trkpt lat="45.58269" lon="4.38327">
        <ele>599</ele>
        <time>2017-03-18T20:26:53Z</time>
      </trkpt>
      <trkpt lat="45.58305" lon="4.38404">
        <ele>598</ele>
        <time>2017-03-18T20:28:53Z</time>
      </trkpt>
      <trkpt lat="45.58257" lon="4.3858">
        <ele>600</ele>
        <time>2017-03-18T20:30:53Z</time>
      </trkpt>
      <trkpt lat="45.58242" lon="4.38679">
        <ele>595</ele>
        <time>2017-03-18T20:32:53Z</time>
      </trkpt>
      <trkpt lat="45.58296" lon="4.38747">
        <ele>592</ele>
        <time>2017-03-18T20:34:53Z</time>
      </trkpt>
      <trkpt lat="45.58404" lon="4.38709">
        <ele>584</ele>
        <time>2017-03-18T20:36:53Z</time>
      </trkpt>
      <trkpt lat="45.58494" lon="4.38632">
        <ele>571</ele>
        <time>2017-03-18T20:38:53Z</time>
      </trkpt>
      <trkpt lat="45.58593" lon="4.3849">
        <ele>562</ele>
        <time>2017-03-18T20:40:53Z</time>
      </trkpt>
      <trkpt lat="45.58584" lon="4.38344">
        <ele>548</ele>
        <time>2017-03-18T20:42:53Z</time>
      </trkpt>
      <trkpt lat="45.58641" lon="4.3837">
        <ele>541</ele>
        <time>2017-03-18T20:44:53Z</time>
      </trkpt>
      <trkpt lat="45.58692" lon="4.38301">
        <ele>535</ele>
        <time>2017-03-18T20:46:53Z</time>
      </trkpt>
      <trkpt lat="45.58755" lon="4.38353">
        <ele>536</ele>
        <time>2017-03-18T20:48:53Z</time>
      </trkpt>
      <trkpt lat="45.58824" lon="4.38335">
        <ele>548</ele>
        <time>2017-03-18T20:50:53Z</time>
      </trkpt>
      <trkpt lat="45.58941" lon="4.38232">
        <ele>561</ele>
        <time>2017-03-18T20:52:53Z</time>
      </trkpt>
      <trkpt lat="45.59026" lon="4.38361">
        <ele>569</ele>
        <time>2017-03-18T20:54:53Z</time>
      </trkpt>
      <trkpt lat="45.5902" lon="4.38559">
        <ele>571</ele>
        <time>2017-03-18T20:56:53Z</time>
      </trkpt>
      <trkpt lat="45.59008" lon="4.38769">
        <ele>578</ele>
        <time>2017-03-18T20:58:53Z</time>
      </trkpt>
      <trkpt lat="45.58968" lon="4.38992">
        <ele>580</ele>
        <time>2017-03-18T21:00:53Z</time>
      </trkpt>
      <trkpt lat="45.5895" lon="4.39125">
        <ele>582</ele>
        <time>2017-03-18T21:02:53Z</time>
      </trkpt>
      <trkpt lat="45.58908" lon="4.39288">
        <ele>588</ele>
        <time>2017-03-18T21:04:53Z</time>
      </trkpt>
      <trkpt lat="45.5895" lon="4.39593">
        <ele>594</ele>
        <time>2017-03-18T21:06:53Z</time>
      </trkpt>
      <trkpt lat="45.5895" lon="4.39683">
        <ele>595</ele>
        <time>2017-03-18T21:08:53Z</time>
      </trkpt>
      <trkpt lat="45.59047" lon="4.39696">
        <ele>590</ele>
        <time>2017-03-18T21:10:53Z</time>
      </trkpt>
      <trkpt lat="45.59251" lon="4.39657">
        <ele>556</ele>
        <time>2017-03-18T21:12:53Z</time>
      </trkpt>
      <trkpt lat="45.59314" lon="4.39567">
        <ele>543</ele>
        <time>2017-03-18T21:14:53Z</time>
      </trkpt>
      <trkpt lat="45.59428" lon="4.39636">
        <ele>526</ele>
        <time>2017-03-18T21:16:53Z</time>
      </trkpt>
      <trkpt lat="45.5953" lon="4.39657">
        <ele>515</ele>
        <time>2017-03-18T21:18:53Z</time>
      </trkpt>
      <trkpt lat="45.59614" lon="4.39606">
        <ele>514</ele>
        <time>2017-03-18T21:20:53Z</time>
      </trkpt>
      <trkpt lat="45.59662" lon="4.39546">
        <ele>511</ele>
        <time>2017-03-18T21:22:53Z</time>
      </trkpt>
      <trkpt lat="45.59785" lon="4.3952">
        <ele>513</ele>
        <time>2017-03-18T21:24:53Z</time>
      </trkpt>
      <trkpt lat="45.59824" lon="4.39451">
        <ele>507</ele>
        <time>2017-03-18T21:26:53Z</time>
      </trkpt>
      <trkpt lat="45.59914" lon="4.39447">
        <ele>518</ele>
        <time>2017-03-18T21:28:53Z</time>
      </trkpt>
      <trkpt lat="45.59998" lon="4.394">
        <ele>520</ele>
        <time>2017-03-18T21:30:53Z</time>
      </trkpt>
      <trkpt lat="45.60077" lon="4.39516">
        <ele>531</ele>
        <time>2017-03-18T21:32:53Z</time>
      </trkpt>
      <trkpt lat="45.60194" lon="4.39451">
        <ele>531</ele>
        <time>2017-03-18T21:34:53Z</time>
      </trkpt>
      <trkpt lat="45.60284" lon="4.39314">
        <ele>526</ele>
        <time>2017-03-18T21:36:53Z</time>
      </trkpt>
      <trkpt lat="45.60407" lon="4.39245">
        <ele>529</ele>
        <time>2017-03-18T21:38:53Z</time>
      </trkpt>
      <trkpt lat="45.60371" lon="4.39413">
        <ele>535</ele>
        <time>2017-03-18T21:40:53Z</time>
      </trkpt>
      <trkpt lat="45.60368" lon="4.39563">
        <ele>540</ele>
        <time>2017-03-18T21:42:53Z</time>
      </trkpt>
      <trkpt lat="45.60431" lon="4.39636">
        <ele>537</ele>
        <time>2017-03-18T21:44:53Z</time>
      </trkpt>
      <trkpt lat="45.60413" lon="4.39812">
        <ele>531</ele>
        <time>2017-03-18T21:46:53Z</time>
      </trkpt>
      <trkpt lat="45.6032" lon="4.39992">
        <ele>538</ele>
        <time>2017-03-18T21:48:53Z</time>
      </trkpt>
      <trkpt lat="45.60386" lon="4.40219">
        <ele>537</ele>
        <time>2017-03-18T21:50:53Z</time>
      </trkpt>
      <trkpt lat="45.60338" lon="4.40318">
        <ele>545</ele>
        <time>2017-03-18T21:52:53Z</time>
      </trkpt>
      <trkpt lat="45.6029" lon="4.4034">
        <ele>549</ele>
        <time>2017-03-18T21:54:53Z</time>
      </trkpt>
      <trkpt lat="45.60269" lon="4.40554">
        <ele>561</ele>
        <time>2017-03-18T21:56:53Z</time>
      </trkpt>
      <trkpt lat="45.60263" lon="4.4061">
        <ele>563</ele>
        <time>2017-03-18T21:58:53Z</time>
      </trkpt>
      <trkpt lat="45.60182" lon="4.40837">
        <ele>578</ele>
        <time>2017-03-18T22:00:53Z</time>
      </trkpt>
      <trkpt lat="45.60185" lon="4.40949">
        <ele>577</ele>
        <time>2017-03-18T22:02:53Z</time>
      </trkpt>
      <trkpt lat="45.60302" lon="4.4097">
        <ele>564</ele>
        <time>2017-03-18T22:04:53Z</time>
      </trkpt>
      <trkpt lat="45.60422" lon="4.41056">
        <ele>554</ele>
        <time>2017-03-18T22:06:53Z</time>
      </trkpt>
      <trkpt lat="45.60551" lon="4.41018">
        <ele>548</ele>
        <time>2017-03-18T22:08:53Z</time>
      </trkpt>
      <trkpt lat="45.60806" lon="4.40983">
        <ele>546</ele>
        <time>2017-03-18T22:10:53Z</time>
      </trkpt>
      <trkpt lat="45.60893" lon="4.41078">
        <ele>538</ele>
        <time>2017-03-18T22:12:53Z</time>
      </trkpt>
      <trkpt lat="45.60932" lon="4.41138">
        <ele>530</ele>
        <time>2017-03-18T22:14:53Z</time>
      </trkpt>
      <trkpt lat="45.61058" lon="4.41176">
        <ele>518</ele>
        <time>2017-03-18T22:16:53Z</time>
      </trkpt>
      <trkpt lat="45.61151" lon="4.41207">
        <ele>510</ele>
        <time>2017-03-18T22:18:53Z</time>
      </trkpt>
      <trkpt lat="45.61199" lon="4.41275">
        <ele>499</ele>
        <time>2017-03-18T22:20:53Z</time>
      </trkpt>
      <trkpt lat="45.61313" lon="4.41331">
        <ele>482</ele>
        <time>2017-03-18T22:22:53Z</time>
      </trkpt>
      <trkpt lat="45.61434" lon="4.41344">
        <ele>470</ele>
        <time>2017-03-18T22:24:53Z</time>
      </trkpt>
      <trkpt lat="45.61533" lon="4.41417">
        <ele>466</ele>
        <time>2017-03-18T22:26:53Z</time>
      </trkpt>
      <trkpt lat="45.61599" lon="4.41485">
        <ele>468</ele>
        <time>2017-03-18T22:28:53Z</time>
      </trkpt>
      <trkpt lat="45.61608" lon="4.4164">
        <ele>465</ele>
        <time>2017-03-18T22:30:53Z</time>
      </trkpt>
      <trkpt lat="45.6165" lon="4.41902">
        <ele>469</ele>
        <time>2017-03-18T22:32:53Z</time>
      </trkpt>
      <trkpt lat="45.61758" lon="4.41988">
        <ele>470</ele>
        <time>2017-03-18T22:34:53Z</time>
      </trkpt>
      <trkpt lat="45.61797" lon="4.42185">
        <ele>469</ele>
        <time>2017-03-18T22:36:53Z</time>
      </trkpt>
      <trkpt lat="45.61788" lon="4.42245">
        <ele>469</ele>
        <time>2017-03-18T22:38:53Z</time>
      </trkpt>
      <trkpt lat="45.61884" lon="4.42279">
        <ele>471</ele>
        <time>2017-03-18T22:40:53Z</time>
      </trkpt>
      <trkpt lat="45.61995" lon="4.42309">
        <ele>476</ele>
        <time>2017-03-18T22:42:53Z</time>
      </trkpt>
      <trkpt lat="45.62079" lon="4.42288">
        <ele>483</ele>
        <time>2017-03-18T22:44:53Z</time>
      </trkpt>
      <trkpt lat="45.62274" lon="4.42279">
        <ele>486</ele>
        <time>2017-03-18T22:46:53Z</time>
      </trkpt>
      <trkpt lat="45.62394" lon="4.42271">
        <ele>490</ele>
        <time>2017-03-18T22:48:53Z</time>
      </trkpt>
      <trkpt lat="45.62505" lon="4.42477">
        <ele>488</ele>
        <time>2017-03-18T22:50:53Z</time>
      </trkpt>
      <trkpt lat="45.6252" lon="4.4258">
        <ele>484</ele>
        <time>2017-03-18T22:52:53Z</time>
      </trkpt>
      <trkpt lat="45.62535" lon="4.42777">
        <ele>487</ele>
        <time>2017-03-18T22:54:53Z</time>
      </trkpt>
      <trkpt lat="45.62592" lon="4.42863">
        <ele>496</ele>
        <time>2017-03-18T22:56:53Z</time>
      </trkpt>
      <trkpt lat="45.62595" lon="4.43155">
        <ele>504</ele>
        <time>2017-03-18T22:58:53Z</time>
      </trkpt>
      <trkpt lat="45.62538" lon="4.43404">
        <ele>503</ele>
        <time>2017-03-18T23:00:53Z</time>
      </trkpt>
      <trkpt lat="45.62442" lon="4.43683">
        <ele>494</ele>
        <time>2017-03-18T23:02:53Z</time>
      </trkpt>
      <trkpt lat="45.62388" lon="4.43927">
        <ele>494</ele>
        <time>2017-03-18T23:04:53Z</time>
      </trkpt>
      <trkpt lat="45.62391" lon="4.44056">
        <ele>494</ele>
        <time>2017-03-18T23:06:53Z</time>
      </trkpt>
      <trkpt lat="45.624" lon="4.44176">
        <ele>497</ele>
        <time>2017-03-18T23:08:53Z</time>
      </trkpt>
      <trkpt lat="45.62355" lon="4.44284">
        <ele>496</ele>
        <time>2017-03-18T23:10:53Z</time>
      </trkpt>
      <trkpt lat="45.62325" lon="4.44434">
        <ele>497</ele>
        <time>2017-03-18T23:12:53Z</time>
      </trkpt>
      <trkpt lat="45.62307" lon="4.44464">
        <ele>495</ele>
        <time>2017-03-18T23:14:53Z</time>
      </trkpt>
      <trkpt lat="45.62379" lon="4.44537">
        <ele>500</ele>
        <time>2017-03-18T23:16:53Z</time>
      </trkpt>
      <trkpt lat="45.62388" lon="4.44661">
        <ele>507</ele>
        <time>2017-03-18T23:18:53Z</time>
      </trkpt>
      <trkpt lat="45.62544" lon="4.4464">
        <ele>515</ele>
        <time>2017-03-18T23:20:53Z</time>
      </trkpt>
      <trkpt lat="45.62667" lon="4.44799">
        <ele>537</ele>
        <time>2017-03-18T23:22:53Z</time>
      </trkpt>
      <trkpt lat="45.62748" lon="4.44863">
        <ele>544</ele>
        <time>2017-03-18T23:24:53Z</time>
      </trkpt>
      <trkpt lat="45.62847" lon="4.44811">
        <ele>543</ele>
        <time>2017-03-18T23:26:53Z</time>
      </trkpt>
      <trkpt lat="45.62877" lon="4.44957">
        <ele>545</ele>
        <time>2017-03-18T23:28:53Z</time>
      </trkpt>
      <trkpt lat="45.62886" lon="4.45052">
        <ele>550</ele>
        <time>2017-03-18T23:30:53Z</time>
      </trkpt>
      <trkpt lat="45.62979" lon="4.45095">
        <ele>548</ele>
        <time>2017-03-18T23:32:53Z</time>
      </trkpt>
      <trkpt lat="45.63" lon="4.45202">
        <ele>557</ele>
        <time>2017-03-18T23:34:53Z</time>
      </trkpt>
      <trkpt lat="45.63114" lon="4.45288">
        <ele>563</ele>
        <time>2017-03-18T23:36:53Z</time>
      </trkpt>
      <trkpt lat="45.63073" lon="4.45356">
        <ele>570</ele>
        <time>2017-03-18T23:38:53Z</time>
      </trkpt>
      <trkpt lat="45.63077" lon="4.45372">
        <ele>571</ele>
        <time>2017-03-18T23:40:53Z</time>
      </trkpt>
      <trkpt lat="45.63091" lon="4.45353">
        <ele>571</ele>
        <time>2017-03-18T23:42:53Z</time>
      </trkpt>
      <trkpt lat="45.63109" lon="4.45347">
        <ele>572</ele>
        <time>2017-03-18T23:44:53Z</time>
      </trkpt>
      <trkpt lat="45.63117" lon="4.45368">
        <ele>575</ele>
        <time>2017-03-18T23:46:53Z</time>
      </trkpt>
      <trkpt lat="45.63123" lon="4.45382">
        <ele>577</ele>
        <time>2017-03-18T23:48:53Z</time>
      </trkpt>
      <trkpt lat="45.63129" lon="4.454">
        <ele>580</ele>
        <time>2017-03-18T23:50:53Z</time>
      </trkpt>
      <trkpt lat="45.63132" lon="4.45437">
        <ele>582</ele>
        <time>2017-03-18T23:52:53Z</time>
      </trkpt>
      <trkpt lat="45.6315" lon="4.45447">
        <ele>585</ele>
        <time>2017-03-18T23:54:53Z</time>
      </trkpt>
      <trkpt lat="45.63165" lon="4.4547">
        <ele>587</ele>
        <time>2017-03-18T23:56:53Z</time>
      </trkpt>
      <trkpt lat="45.63201" lon="4.45501">
        <ele>590</ele>
        <time>2017-03-18T23:58:53Z</time>
      </trkpt>
      <trkpt lat="45.63283" lon="4.45528">
        <ele>589</ele>
        <time>2017-03-19T00:00:53Z</time>
      </trkpt>
      <trkpt lat="45.63283" lon="4.45485">
        <ele>589</ele>
        <time>2017-03-19T00:02:53Z</time>
      </trkpt>
      <trkpt lat="45.63241" lon="4.45456">
        <ele>593</ele>
        <time>2017-03-19T00:04:53Z</time>
      </trkpt>
      <trkpt lat="45.63231" lon="4.45443">
        <ele>593</ele>
        <time>2017-03-19T00:06:53Z</time>
      </trkpt>
      <trkpt lat="45.63222" lon="4.45388">
        <ele>589</ele>
        <time>2017-03-19T00:08:53Z</time>
      </trkpt>
      <trkpt lat="45.63232" lon="4.45361">
        <ele>587</ele>
        <time>2017-03-19T00:10:53Z</time>
      </trkpt>
      <trkpt lat="45.63258" lon="4.45361">
        <ele>586</ele>
        <time>2017-03-19T00:12:53Z</time>
      </trkpt>
      <trkpt lat="45.6327" lon="4.45392">
        <ele>587</ele>
        <time>2017-03-19T00:14:53Z</time>
      </trkpt>
      <trkpt lat="45.63272" lon="4.45415">
        <ele>589</ele>
        <time>2017-03-19T00:16:53Z</time>
      </trkpt>
      <trkpt lat="45.63248" lon="4.45436">
        <ele>594</ele>
        <time>2017-03-19T00:18:53Z</time>
      </trkpt>
      <trkpt lat="45.63219" lon="4.45442">
        <ele>592</ele>
        <time>2017-03-19T00:20:53Z</time>
      </trkpt>
      <trkpt lat="45.63201" lon="4.45429">
        <ele>590</ele>
        <time>2017-03-19T00:22:53Z</time>
      </trkpt>
      <trkpt lat="45.63192" lon="4.45401">
        <ele>588</ele>
        <time>2017-03-19T00:24:53Z</time>
      </trkpt>
      <trkpt lat="45.63183" lon="4.45403">
        <ele>587</ele>
        <time>2017-03-19T00:26:53Z</time>
      </trkpt>
      <trkpt lat="45.63189" lon="4.45361">
        <ele>582</ele>
        <time>2017-03-19T00:28:53Z</time>
      </trkpt>
      <trkpt lat="45.63216" lon="4.45312">
        <ele>577</ele>
        <time>2017-03-19T00:30:53Z</time>
      </trkpt>
      <trkpt lat="45.63206" lon="4.453">
        <ele>573</ele>
        <time>2017-03-19T00:32:53Z</time>
      </trkpt>
      <trkpt lat="45.63177" lon="4.45327">
        <ele>577</ele>
        <time>2017-03-19T00:34:53Z</time>
      </trkpt>
      <trkpt lat="45.63173" lon="4.45318">
        <ele>574</ele>
        <time>2017-03-19T00:36:53Z</time>
      </trkpt>
      <trkpt lat="45.63203" lon="4.45278">
        <ele>568</ele>
        <time>2017-03-19T00:38:53Z</time>
      </trkpt>
      <trkpt lat="45.63228" lon="4.45259">
        <ele>566</ele>
        <time>2017-03-19T00:40:53Z</time>
      </trkpt>
      <trkpt lat="45.63255" lon="4.45243">
        <ele>566</ele>
        <time>2017-03-19T00:42:53Z</time>
      </trkpt>
      <trkpt lat="45.63285" lon="4.45184">
        <ele>566</ele>
        <time>2017-03-19T00:44:53Z</time>
      </trkpt>
      <trkpt lat="45.6329" lon="4.45138">
        <ele>569</ele>
        <time>2017-03-19T00:46:53Z</time>
      </trkpt>
      <trkpt lat="45.63282" lon="4.45108">
        <ele>570</ele>
        <time>2017-03-19T00:48:53Z</time>
      </trkpt>
      <trkpt lat="45.63267" lon="4.45065">
        <ele>571</ele>
        <time>2017-03-19T00:50:53Z</time>
      </trkpt>
      <trkpt lat="45.63251" lon="4.4504">
        <ele>570</ele>
        <time>2017-03-19T00:52:53Z</time>
      </trkpt>
      <trkpt lat="45.63222" lon="4.45016">
        <ele>571</ele>
        <time>2017-03-19T00:54:53Z</time>
      </trkpt>
      <trkpt lat="45.6318" lon="4.44983">
        <ele>571</ele>
        <time>2017-03-19T00:56:53Z</time>
      </trkpt>
      <trkpt lat="45.6316" lon="4.44968">
        <ele>571</ele>
        <time>2017-03-19T00:58:53Z</time>
      </trkpt>
      <trkpt lat="45.63076" lon="4.44815">
        <ele>574</ele>
        <time>2017-03-19T01:00:53Z</time>
      </trkpt>
      <trkpt lat="45.62954" lon="4.44694">
        <ele>576</ele>
        <time>2017-03-19T01:02:53Z</time>
      </trkpt>
      <trkpt lat="45.62873" lon="4.44585">
        <ele>583</ele>
        <time>2017-03-19T01:04:53Z</time>
      </trkpt>
      <trkpt lat="45.62864" lon="4.44488">
        <ele>579</ele>
        <time>2017-03-19T01:06:53Z</time>
      </trkpt>
      <trkpt lat="45.62867" lon="4.44407">
        <ele>577</ele>
        <time>2017-03-19T01:08:53Z</time>
      </trkpt>
      <trkpt lat="45.62958" lon="4.44222">
        <ele>566</ele>
        <time>2017-03-19T01:10:53Z</time>
      </trkpt>
      <trkpt lat="45.63047" lon="4.44169">
        <ele>565</ele>
        <time>2017-03-19T01:12:53Z</time>
      </trkpt>
      <trkpt lat="45.63095" lon="4.44117">
        <ele>566</ele>
        <time>2017-03-19T01:14:53Z</time>
      </trkpt>
      <trkpt lat="45.6311" lon="4.44004">
        <ele>568</ele>
        <time>2017-03-19T01:16:53Z</time>
      </trkpt>
      <trkpt lat="45.63098" lon="4.43665">
        <ele>567</ele>
        <time>2017-03-19T01:18:53Z</time>
      </trkpt>
      <trkpt lat="45.63141" lon="4.4339">
        <ele>557</ele>
        <time>2017-03-19T01:20:53Z</time>
      </trkpt>
      <trkpt lat="45.63161" lon="4.43173">
        <ele>552</ele>
        <time>2017-03-19T01:22:53Z</time>
      </trkpt>
      <trkpt lat="45.63159" lon="4.43087">
        <ele>551</ele>
        <time>2017-03-19T01:24:53Z</time>
      </trkpt>
      <trkpt lat="45.63231" lon="4.43066">
        <ele>553</ele>
        <time>2017-03-19T01:26:53Z</time>
      </trkpt>
      <trkpt lat="45.6327" lon="4.43034">
        <ele>551</ele>
        <time>2017-03-19T01:28:53Z</time>
      </trkpt>
      <trkpt lat="45.63284" lon="4.43077">
        <ele>551</ele>
        <time>2017-03-19T01:30:53Z</time>
      </trkpt>
      <trkpt lat="45.63327" lon="4.43068">
        <ele>547</ele>
        <time>2017-03-19T01:32:53Z</time>
      </trkpt>
      <trkpt lat="45.63357" lon="4.43109">
        <ele>547</ele>
        <time>2017-03-19T01:34:53Z</time>
      </trkpt>
      <trkpt lat="45.63366" lon="4.43055">
        <ele>545</ele>
        <time>2017-03-19T01:36:53Z</time>
      </trkpt>
      <trkpt lat="45.63336" lon="4.43008">
        <ele>543</ele>
        <time>2017-03-19T01:38:53Z</time>
      </trkpt>
      <trkpt lat="45.63396" lon="4.42969">
        <ele>544</ele>
        <time>2017-03-19T01:40:53Z</time>
      </trkpt>
      <trkpt lat="45.63399" lon="4.42903">
        <ele>545</ele>
        <time>2017-03-19T01:42:53Z</time>
      </trkpt>
      <trkpt lat="45.63371" lon="4.42841">
        <ele>540</ele>
        <time>2017-03-19T01:44:53Z</time>
      </trkpt>
      <trkpt lat="45.63327" lon="4.42843">
        <ele>535</ele>
        <time>2017-03-19T01:46:53Z</time>
      </trkpt>
      <trkpt lat="45.63323" lon="4.42703">
        <ele>534</ele>
        <time>2017-03-19T01:48:53Z</time>
      </trkpt>
      <trkpt lat="45.63308" lon="4.4275">
        <ele>534</ele>
        <time>2017-03-19T01:50:53Z</time>
      </trkpt>
      <trkpt lat="45.63312" lon="4.42838">
        <ele>536</ele>
        <time>2017-03-19T01:52:53Z</time>
      </trkpt>
      <trkpt lat="45.63294" lon="4.42838">
        <ele>538</ele>
        <time>2017-03-19T01:54:53Z</time>
      </trkpt>
      <trkpt lat="45.63272" lon="4.4278">
        <ele>538</ele>
        <time>2017-03-19T01:56:53Z</time>
      </trkpt>
      <trkpt lat="45.63284" lon="4.42703">
        <ele>536</ele>
        <time>2017-03-19T01:58:53Z</time>
      </trkpt>
      <trkpt lat="45.63249" lon="4.42617">
        <ele>532</ele>
        <time>2017-03-19T02:00:53Z</time>
      </trkpt>
      <trkpt lat="45.63174" lon="4.42482">
        <ele>534</ele>
        <time>2017-03-19T02:02:53Z</time>
      </trkpt>
      <trkpt lat="45.63144" lon="4.42308">
        <ele>524</ele>
        <time>2017-03-19T02:04:53Z</time>
      </trkpt>
      <trkpt lat="45.63132" lon="4.42152">
        <ele>528</ele>
        <time>2017-03-19T02:06:53Z</time>
      </trkpt>
      <trkpt lat="45.63129" lon="4.42124">
        <ele>531</ele>
        <time>2017-03-19T02:08:53Z</time>
      </trkpt>
      <trkpt lat="45.63138" lon="4.41933">
        <ele>545</ele>
        <time>2017-03-19T02:10:53Z</time>
      </trkpt>
      <trkpt lat="45.63294" lon="4.41902">
        <ele>559</ele>
        <time>2017-03-19T02:12:53Z</time>
      </trkpt>
      <trkpt lat="45.63387" lon="4.41953">
        <ele>570</ele>
        <time>2017-03-19T02:14:53Z</time>
      </trkpt>
      <trkpt lat="45.63729" lon="4.41945">
        <ele>603</ele>
        <time>2017-03-19T02:16:53Z</time>
      </trkpt>
      <trkpt lat="45.63742" lon="4.41842">
        <ele>606</ele>
        <time>2017-03-19T02:18:53Z</time>
      </trkpt>
      <trkpt lat="45.63832" lon="4.41756">
        <ele>616</ele>
        <time>2017-03-19T02:20:53Z</time>
      </trkpt>
      <trkpt lat="45.63928" lon="4.41644">
        <ele>615</ele>
        <time>2017-03-19T02:22:53Z</time>
      </trkpt>
      <trkpt lat="45.63955" lon="4.41434">
        <ele>615</ele>
        <time>2017-03-19T02:24:53Z</time>
      </trkpt>
      <trkpt lat="45.64036" lon="4.41357">
        <ele>614</ele>
        <time>2017-03-19T02:26:53Z</time>
      </trkpt>
      <trkpt lat="45.64057" lon="4.41284">
        <ele>609</ele>
        <time>2017-03-19T02:28:53Z</time>
      </trkpt>
      <trkpt lat="45.64057" lon="4.41138">
        <ele>588</ele>
        <time>2017-03-19T02:30:53Z</time>
      </trkpt>
      <trkpt lat="45.63991" lon="4.41099">
        <ele>571</ele>
        <time>2017-03-19T02:32:53Z</time>
      </trkpt>
      <trkpt lat="45.64036" lon="4.41086">
        <ele>575</ele>
        <time>2017-03-19T02:34:53Z</time>
      </trkpt>
      <trkpt lat="45.64045" lon="4.41009">
        <ele>569</ele>
        <time>2017-03-19T02:36:53Z</time>
      </trkpt>
      <trkpt lat="45.63988" lon="4.40975">
        <ele>564</ele>
        <time>2017-03-19T02:38:53Z</time>
      </trkpt>
      <trkpt lat="45.6394" lon="4.40936">
        <ele>562</ele>
        <time>2017-03-19T02:40:53Z</time>
      </trkpt>
      <trkpt lat="45.6391" lon="4.40837">
        <ele>570</ele>
        <time>2017-03-19T02:42:53Z</time>
      </trkpt>
      <trkpt lat="45.63913" lon="4.40726">
        <ele>579</ele>
        <time>2017-03-19T02:44:53Z</time>
      </trkpt>
      <trkpt lat="45.63862" lon="4.40661">
        <ele>579</ele>
        <time>2017-03-19T02:46:53Z</time>
      </trkpt>
      <trkpt lat="45.6382" lon="4.40597">
        <ele>576</ele>
        <time>2017-03-19T02:48:53Z</time>
      </trkpt>
      <trkpt lat="45.63808" lon="4.40533">
        <ele>574</ele>
        <time>2017-03-19T02:50:53Z</time>
      </trkpt>
      <trkpt lat="45.63775" lon="4.40473">
        <ele>570</ele>
        <time>2017-03-19T02:52:53Z</time>
      </trkpt>
      <trkpt lat="45.63802" lon="4.40344">
        <ele>574</ele>
        <time>2017-03-19T02:54:53Z</time>
      </trkpt>
      <trkpt lat="45.6388" lon="4.40215">
        <ele>579</ele>
        <time>2017-03-19T02:56:53Z</time>
      </trkpt>
      <trkpt lat="45.63868" lon="4.40031">
        <ele>591</ele>
        <time>2017-03-19T02:58:53Z</time>
      </trkpt>
      <trkpt lat="45.63928" lon="4.39893">
        <ele>601</ele>
        <time>2017-03-19T03:00:53Z</time>
      </trkpt>
      <trkpt lat="45.63895" lon="4.39855">
        <ele>603</ele>
        <time>2017-03-19T03:02:53Z</time>
      </trkpt>
      <trkpt lat="45.63862" lon="4.39692">
        <ele>612</ele>
        <time>2017-03-19T03:04:53Z</time>
      </trkpt>
      <trkpt lat="45.63826" lon="4.39563">
        <ele>620</ele>
        <time>2017-03-19T03:06:53Z</time>
      </trkpt>
      <trkpt lat="45.63826" lon="4.39563">
        <ele>618</ele>
      </trkpt>
      <trkpt lat="45.63815" lon="4.39468">
        <ele>626</ele>
      </trkpt>
      <trkpt lat="45.6383" lon="4.39393">
        <ele>626</ele>
      </trkpt>
      <trkpt lat="45.63836" lon="4.3931">
        <ele>626</ele>
      </trkpt>
      <trkpt lat="45.63855" lon="4.39227">
        <ele>624</ele>
      </trkpt>
      <trkpt lat="45.63855" lon="4.39175">
        <ele>623</ele>
      </trkpt>
      <trkpt lat="45.63876" lon="4.3919">
        <ele>618</ele>
      </trkpt>
      <trkpt lat="45.63907" lon="4.39164">
        <ele>618</ele>
      </trkpt>
      <trkpt lat="45.63844" lon="4.39058">
        <ele>621</ele>
      </trkpt>
      <trkpt lat="45.63827" lon="4.39025">
        <ele>617</ele>
      </trkpt>
      <trkpt lat="45.63795" lon="4.38874">
        <ele>614</ele>
      </trkpt>
      <trkpt lat="45.63774" lon="4.38841">
        <ele>615</ele>
      </trkpt>
      <trkpt lat="45.63748" lon="4.38829">
        <ele>615</ele>
      </trkpt>
    </trkseg>
  </trk>
</gpx>